sensor_id;sensor_type;location;lat;lon;timestamp;P1;durP1;ratioP1;P2;durP2;ratioP2
11490;SDS011;5802;52.832;4.758;2022-11-14T00:00:36;2.38;;;2.15;;
11490;SDS011;5802;52.832;4.758;2022-11-14T00:03:04;2.58;;;1.98;;
11490;SDS011;5802;52.832;4.758;2022-11-14T00:05:32;3.35;;;2.17;;
11490;SDS011;5802;52.832;4.758;2022-11-14T00:08:04;2.67;;;2.20;;
11490;SDS011;5802;52.832;4.758;2022-11-14T00:10:31;2.58;;;1.95;;
11490;SDS011;5802;52.832;4.758;2022-11-14T00:12:58;2.35;;;2.10;;
11490;SDS011;5802;52.832;4.758;2022-11-14T00:15:24;3.50;;;2.03;;
11490;SDS011;5802;52.832;4.758;2022-11-14T00:17:51;2.58;;;2.13;;
11490;SDS011;5802;52.832;4.758;2022-11-14T00:20:19;3.33;;;2.20;;
11490;SDS011;5802;52.832;4.758;2022-11-14T00:22:46;3.63;;;2.28;;
11490;SDS011;5802;52.832;4.758;2022-11-14T00:25:12;2.90;;;2.17;;
11490;SDS011;5802;52.832;4.758;2022-11-14T00:27:39;2.85;;;2.22;;
11490;SDS011;5802;52.832;4.758;2022-11-14T00:30:06;2.70;;;2.40;;
11490;SDS011;5802;52.832;4.758;2022-11-14T00:32:33;2.30;;;2.10;;
11490;SDS011;5802;52.832;4.758;2022-11-14T00:35:00;2.60;;;2.22;;
11490;SDS011;5802;52.832;4.758;2022-11-14T00:37:28;2.80;;;2.10;;
11490;SDS011;5802;52.832;4.758;2022-11-14T00:39:55;2.90;;;2.50;;
11490;SDS011;5802;52.832;4.758;2022-11-14T00:42:21;2.58;;;2.22;;
11490;SDS011;5802;52.832;4.758;2022-11-14T00:44:48;2.78;;;2.35;;
11490;SDS011;5802;52.832;4.758;2022-11-14T00:47:15;3.20;;;2.33;;
11490;SDS011;5802;52.832;4.758;2022-11-14T00:49:41;2.40;;;2.20;;
11490;SDS011;5802;52.832;4.758;2022-11-14T00:52:08;3.03;;;2.38;;
11490;SDS011;5802;52.832;4.758;2022-11-14T00:54:36;5.75;;;2.63;;
11490;SDS011;5802;52.832;4.758;2022-11-14T00:57:03;3.67;;;2.35;;
11490;SDS011;5802;52.832;4.758;2022-11-14T00:59:30;3.00;;;2.40;;
11490;SDS011;5802;52.832;4.758;2022-11-14T01:01:56;2.80;;;2.30;;
11490;SDS011;5802;52.832;4.758;2022-11-14T01:04:23;4.78;;;2.42;;
11490;SDS011;5802;52.832;4.758;2022-11-14T01:06:50;2.70;;;2.45;;
11490;SDS011;5802;52.832;4.758;2022-11-14T01:09:16;3.05;;;2.47;;
11490;SDS011;5802;52.832;4.758;2022-11-14T01:11:44;2.80;;;2.50;;
11490;SDS011;5802;52.832;4.758;2022-11-14T01:14:11;2.70;;;2.35;;
11490;SDS011;5802;52.832;4.758;2022-11-14T01:16:37;2.65;;;2.40;;
11490;SDS011;5802;52.832;4.758;2022-11-14T01:19:04;2.80;;;2.40;;
11490;SDS011;5802;52.832;4.758;2022-11-14T01:21:31;2.80;;;2.60;;
11490;SDS011;5802;52.832;4.758;2022-11-14T01:23:58;6.85;;;2.75;;
11490;SDS011;5802;52.832;4.758;2022-11-14T01:26:24;3.00;;;2.53;;
11490;SDS011;5802;52.832;4.758;2022-11-14T01:28:53;2.60;;;2.33;;
11490;SDS011;5802;52.832;4.758;2022-11-14T01:31:20;3.17;;;2.85;;
11490;SDS011;5802;52.832;4.758;2022-11-14T01:33:48;4.53;;;2.90;;
11490;SDS011;5802;52.832;4.758;2022-11-14T01:36:16;3.50;;;2.90;;
11490;SDS011;5802;52.832;4.758;2022-11-14T01:38:43;3.67;;;2.78;;
11490;SDS011;5802;52.832;4.758;2022-11-14T01:41:11;3.30;;;3.00;;
11490;SDS011;5802;52.832;4.758;2022-11-14T01:43:39;3.15;;;2.65;;
11490;SDS011;5802;52.832;4.758;2022-11-14T01:46:09;2.90;;;2.70;;
11490;SDS011;5802;52.832;4.758;2022-11-14T01:48:40;3.95;;;2.55;;
11490;SDS011;5802;52.832;4.758;2022-11-14T01:51:16;3.33;;;3.03;;
11490;SDS011;5802;52.832;4.758;2022-11-14T01:53:46;3.83;;;3.20;;
11490;SDS011;5802;52.832;4.758;2022-11-14T01:56:16;3.63;;;3.28;;
11490;SDS011;5802;52.832;4.758;2022-11-14T01:58:45;3.08;;;2.78;;
11490;SDS011;5802;52.832;4.758;2022-11-14T02:01:18;3.30;;;3.00;;
11490;SDS011;5802;52.832;4.758;2022-11-14T02:03:45;3.50;;;3.20;;
11490;SDS011;5802;52.832;4.758;2022-11-14T02:06:17;5.03;;;3.28;;
11490;SDS011;5802;52.832;4.758;2022-11-14T02:08:46;3.03;;;2.72;;
11490;SDS011;5802;52.832;4.758;2022-11-14T02:11:14;3.10;;;2.80;;
11490;SDS011;5802;52.832;4.758;2022-11-14T02:13:41;3.85;;;3.08;;
11490;SDS011;5802;52.832;4.758;2022-11-14T02:16:08;4.88;;;3.03;;
11490;SDS011;5802;52.832;4.758;2022-11-14T02:18:36;3.53;;;3.08;;
11490;SDS011;5802;52.832;4.758;2022-11-14T02:21:04;3.58;;;3.28;;
11490;SDS011;5802;52.832;4.758;2022-11-14T02:23:31;3.10;;;2.80;;
11490;SDS011;5802;52.832;4.758;2022-11-14T02:25:58;3.75;;;3.10;;
11490;SDS011;5802;52.832;4.758;2022-11-14T02:28:25;3.83;;;3.45;;
11490;SDS011;5802;52.832;4.758;2022-11-14T02:30:52;4.07;;;2.97;;
11490;SDS011;5802;52.832;4.758;2022-11-14T02:33:19;4.10;;;3.20;;
11490;SDS011;5802;52.832;4.758;2022-11-14T02:35:46;4.50;;;3.63;;
11490;SDS011;5802;52.832;4.758;2022-11-14T02:38:14;3.50;;;3.20;;
11490;SDS011;5802;52.832;4.758;2022-11-14T02:40:40;3.72;;;3.40;;
11490;SDS011;5802;52.832;4.758;2022-11-14T02:43:07;3.70;;;3.30;;
11490;SDS011;5802;52.832;4.758;2022-11-14T02:45:34;3.83;;;3.25;;
11490;SDS011;5802;52.832;4.758;2022-11-14T02:48:01;3.78;;;3.40;;
11490;SDS011;5802;52.832;4.758;2022-11-14T02:50:28;4.00;;;3.50;;
11490;SDS011;5802;52.832;4.758;2022-11-14T02:52:54;4.07;;;3.55;;
11490;SDS011;5802;52.832;4.758;2022-11-14T02:55:22;4.38;;;3.47;;
11490;SDS011;5802;52.832;4.758;2022-11-14T02:57:49;4.03;;;3.63;;
11490;SDS011;5802;52.832;4.758;2022-11-14T03:00:16;3.55;;;3.22;;
11490;SDS011;5802;52.832;4.758;2022-11-14T03:02:44;5.47;;;3.80;;
11490;SDS011;5802;52.832;4.758;2022-11-14T03:05:10;4.00;;;3.60;;
11490;SDS011;5802;52.832;4.758;2022-11-14T03:07:37;4.10;;;3.40;;
11490;SDS011;5802;52.832;4.758;2022-11-14T03:10:04;4.13;;;3.60;;
11490;SDS011;5802;52.832;4.758;2022-11-14T03:12:34;5.82;;;3.70;;
11490;SDS011;5802;52.832;4.758;2022-11-14T03:15:01;3.78;;;3.47;;
11490;SDS011;5802;52.832;4.758;2022-11-14T03:17:29;4.45;;;3.65;;
11490;SDS011;5802;52.832;4.758;2022-11-14T03:19:56;4.05;;;3.65;;
11490;SDS011;5802;52.832;4.758;2022-11-14T03:22:23;4.28;;;3.60;;
11490;SDS011;5802;52.832;4.758;2022-11-14T03:24:50;4.05;;;3.53;;
11490;SDS011;5802;52.832;4.758;2022-11-14T03:27:17;4.30;;;3.72;;
11490;SDS011;5802;52.832;4.758;2022-11-14T03:29:46;4.35;;;3.92;;
11490;SDS011;5802;52.832;4.758;2022-11-14T03:32:12;4.47;;;4.07;;
11490;SDS011;5802;52.832;4.758;2022-11-14T03:34:39;4.30;;;3.90;;
11490;SDS011;5802;52.832;4.758;2022-11-14T03:37:06;5.55;;;3.97;;
11490;SDS011;5802;52.832;4.758;2022-11-14T03:39:32;4.80;;;4.13;;
11490;SDS011;5802;52.832;4.758;2022-11-14T03:41:59;4.80;;;4.22;;
11490;SDS011;5802;52.832;4.758;2022-11-14T03:44:26;4.88;;;4.13;;
11490;SDS011;5802;52.832;4.758;2022-11-14T03:46:54;5.13;;;3.70;;
11490;SDS011;5802;52.832;4.758;2022-11-14T03:49:20;4.55;;;4.15;;
11490;SDS011;5802;52.832;4.758;2022-11-14T03:51:47;4.78;;;4.18;;
11490;SDS011;5802;52.832;4.758;2022-11-14T03:54:14;4.68;;;4.18;;
11490;SDS011;5802;52.832;4.758;2022-11-14T03:56:41;4.78;;;3.90;;
11490;SDS011;5802;52.832;4.758;2022-11-14T03:59:08;3.92;;;3.60;;
11490;SDS011;5802;52.832;4.758;2022-11-14T04:01:34;4.82;;;3.80;;
11490;SDS011;5802;52.832;4.758;2022-11-14T04:04:02;5.03;;;4.22;;
11490;SDS011;5802;52.832;4.758;2022-11-14T04:06:29;4.30;;;3.90;;
11490;SDS011;5802;52.832;4.758;2022-11-14T04:08:56;4.65;;;4.25;;
11490;SDS011;5802;52.832;4.758;2022-11-14T04:11:22;5.07;;;3.97;;
11490;SDS011;5802;52.832;4.758;2022-11-14T04:13:49;5.05;;;4.35;;
11490;SDS011;5802;52.832;4.758;2022-11-14T04:16:16;4.72;;;3.95;;
11490;SDS011;5802;52.832;4.758;2022-11-14T04:18:42;4.40;;;3.97;;
11490;SDS011;5802;52.832;4.758;2022-11-14T04:21:10;5.97;;;4.10;;
11490;SDS011;5802;52.832;4.758;2022-11-14T04:23:37;4.30;;;3.90;;
11490;SDS011;5802;52.832;4.758;2022-11-14T04:26:04;5.53;;;4.10;;
11490;SDS011;5802;52.832;4.758;2022-11-14T04:28:31;5.00;;;4.50;;
11490;SDS011;5802;52.832;4.758;2022-11-14T04:30:57;5.35;;;4.35;;
11490;SDS011;5802;52.832;4.758;2022-11-14T04:33:24;4.88;;;4.30;;
11490;SDS011;5802;52.832;4.758;2022-11-14T04:35:51;4.43;;;4.03;;
11490;SDS011;5802;52.832;4.758;2022-11-14T04:38:19;5.50;;;4.20;;
11490;SDS011;5802;52.832;4.758;2022-11-14T04:40:49;5.35;;;4.38;;
11490;SDS011;5802;52.832;4.758;2022-11-14T04:43:16;5.65;;;4.50;;
11490;SDS011;5802;52.832;4.758;2022-11-14T04:45:43;5.30;;;4.40;;
11490;SDS011;5802;52.832;4.758;2022-11-14T04:48:10;4.43;;;4.03;;
11490;SDS011;5802;52.832;4.758;2022-11-14T04:50:37;7.53;;;4.97;;
11490;SDS011;5802;52.832;4.758;2022-11-14T04:53:04;6.10;;;4.25;;
11490;SDS011;5802;52.832;4.758;2022-11-14T04:55:32;4.88;;;4.30;;
11490;SDS011;5802;52.832;4.758;2022-11-14T04:57:58;5.43;;;4.15;;
11490;SDS011;5802;52.832;4.758;2022-11-14T05:00:26;4.82;;;4.30;;
11490;SDS011;5802;52.832;4.758;2022-11-14T05:02:53;5.05;;;4.03;;
11490;SDS011;5802;52.832;4.758;2022-11-14T05:05:20;5.70;;;4.30;;
11490;SDS011;5802;52.832;4.758;2022-11-14T05:07:46;5.60;;;4.53;;
11490;SDS011;5802;52.832;4.758;2022-11-14T05:10:13;5.40;;;4.63;;
11490;SDS011;5802;52.832;4.758;2022-11-14T05:12:41;5.50;;;4.85;;
11490;SDS011;5802;52.832;4.758;2022-11-14T05:15:08;4.88;;;4.30;;
11490;SDS011;5802;52.832;4.758;2022-11-14T05:17:35;5.20;;;4.50;;
11490;SDS011;5802;52.832;4.758;2022-11-14T05:20:02;5.63;;;4.43;;
11490;SDS011;5802;52.832;4.758;2022-11-14T05:22:29;5.57;;;4.30;;
11490;SDS011;5802;52.832;4.758;2022-11-14T05:24:56;5.05;;;4.47;;
11490;SDS011;5802;52.832;4.758;2022-11-14T05:27:22;5.30;;;4.80;;
11490;SDS011;5802;52.832;4.758;2022-11-14T05:29:50;5.10;;;4.57;;
11490;SDS011;5802;52.832;4.758;2022-11-14T05:32:19;5.97;;;4.57;;
11490;SDS011;5802;52.832;4.758;2022-11-14T05:34:45;5.32;;;4.82;;
11490;SDS011;5802;52.832;4.758;2022-11-14T05:37:12;6.00;;;4.97;;
11490;SDS011;5802;52.832;4.758;2022-11-14T05:39:39;5.43;;;4.85;;
11490;SDS011;5802;52.832;4.758;2022-11-14T05:42:06;5.25;;;4.47;;
11490;SDS011;5802;52.832;4.758;2022-11-14T05:44:32;5.20;;;4.70;;
11490;SDS011;5802;52.832;4.758;2022-11-14T05:47:00;5.20;;;4.70;;
11490;SDS011;5802;52.832;4.758;2022-11-14T05:49:27;6.80;;;4.88;;
11490;SDS011;5802;52.832;4.758;2022-11-14T05:51:54;7.35;;;5.38;;
11490;SDS011;5802;52.832;4.758;2022-11-14T05:54:20;5.85;;;4.95;;
11490;SDS011;5802;52.832;4.758;2022-11-14T05:56:47;6.38;;;5.22;;
11490;SDS011;5802;52.832;4.758;2022-11-14T05:59:14;6.88;;;5.70;;
11490;SDS011;5802;52.832;4.758;2022-11-14T06:01:40;5.80;;;5.13;;
11490;SDS011;5802;52.832;4.758;2022-11-14T06:04:08;5.47;;;4.90;;
11490;SDS011;5802;52.832;4.758;2022-11-14T06:06:38;5.88;;;5.28;;
11490;SDS011;5802;52.832;4.758;2022-11-14T06:09:04;5.95;;;5.10;;
11490;SDS011;5802;52.832;4.758;2022-11-14T06:11:31;5.40;;;4.90;;
11490;SDS011;5802;52.832;4.758;2022-11-14T06:13:58;6.07;;;5.28;;
11490;SDS011;5802;52.832;4.758;2022-11-14T06:16:24;9.05;;;5.32;;
11490;SDS011;5802;52.832;4.758;2022-11-14T06:18:51;6.25;;;4.90;;
11490;SDS011;5802;52.832;4.758;2022-11-14T06:21:20;7.22;;;5.47;;
11490;SDS011;5802;52.832;4.758;2022-11-14T06:23:48;8.43;;;5.35;;
11490;SDS011;5802;52.832;4.758;2022-11-14T06:26:18;6.53;;;5.28;;
11490;SDS011;5802;52.832;4.758;2022-11-14T06:28:47;7.28;;;6.20;;
11490;SDS011;5802;52.832;4.758;2022-11-14T06:31:14;9.35;;;5.70;;
11490;SDS011;5802;52.832;4.758;2022-11-14T06:33:41;7.38;;;5.85;;
11490;SDS011;5802;52.832;4.758;2022-11-14T06:36:08;8.77;;;5.70;;
11490;SDS011;5802;52.832;4.758;2022-11-14T06:38:36;6.47;;;5.75;;
11490;SDS011;5802;52.832;4.758;2022-11-14T06:41:05;6.65;;;5.57;;
11490;SDS011;5802;52.832;4.758;2022-11-14T06:43:33;7.63;;;5.78;;
11490;SDS011;5802;52.832;4.758;2022-11-14T06:46:00;8.02;;;6.22;;
11490;SDS011;5802;52.832;4.758;2022-11-14T06:48:27;6.60;;;5.40;;
11490;SDS011;5802;52.832;4.758;2022-11-14T06:50:55;6.13;;;5.53;;
11490;SDS011;5802;52.832;4.758;2022-11-14T06:53:23;6.70;;;5.80;;
11490;SDS011;5802;52.832;4.758;2022-11-14T06:55:58;6.55;;;5.35;;
11490;SDS011;5802;52.832;4.758;2022-11-14T06:58:26;6.93;;;6.00;;
11490;SDS011;5802;52.832;4.758;2022-11-14T07:00:53;6.22;;;5.63;;
11490;SDS011;5802;52.832;4.758;2022-11-14T07:03:20;7.88;;;5.80;;
11490;SDS011;5802;52.832;4.758;2022-11-14T07:05:47;6.70;;;6.00;;
11490;SDS011;5802;52.832;4.758;2022-11-14T07:08:14;7.25;;;5.93;;
11490;SDS011;5802;52.832;4.758;2022-11-14T07:10:41;6.88;;;5.97;;
11490;SDS011;5802;52.832;4.758;2022-11-14T07:13:09;7.10;;;5.90;;
11490;SDS011;5802;52.832;4.758;2022-11-14T07:15:36;6.93;;;5.65;;
11490;SDS011;5802;52.832;4.758;2022-11-14T07:18:03;6.30;;;5.70;;
11490;SDS011;5802;52.832;4.758;2022-11-14T07:20:30;7.75;;;6.22;;
11490;SDS011;5802;52.832;4.758;2022-11-14T07:22:56;6.90;;;6.20;;
11490;SDS011;5802;52.832;4.758;2022-11-14T07:25:23;7.88;;;6.35;;
11490;SDS011;5802;52.832;4.758;2022-11-14T07:27:50;7.25;;;5.97;;
11490;SDS011;5802;52.832;4.758;2022-11-14T07:30:18;6.90;;;6.00;;
11490;SDS011;5802;52.832;4.758;2022-11-14T07:32:45;6.82;;;6.10;;
11490;SDS011;5802;52.832;4.758;2022-11-14T07:35:11;6.68;;;5.75;;
11490;SDS011;5802;52.832;4.758;2022-11-14T07:37:38;7.68;;;6.50;;
11490;SDS011;5802;52.832;4.758;2022-11-14T07:40:05;7.18;;;6.05;;
11490;SDS011;5802;52.832;4.758;2022-11-14T07:42:33;7.50;;;6.45;;
11490;SDS011;5802;52.832;4.758;2022-11-14T07:44:59;7.72;;;6.25;;
11490;SDS011;5802;52.832;4.758;2022-11-14T07:47:28;7.68;;;6.22;;
11490;SDS011;5802;52.832;4.758;2022-11-14T07:49:54;6.90;;;6.13;;
11490;SDS011;5802;52.832;4.758;2022-11-14T07:52:21;8.20;;;6.65;;
11490;SDS011;5802;52.832;4.758;2022-11-14T07:54:48;7.25;;;6.25;;
11490;SDS011;5802;52.832;4.758;2022-11-14T07:57:14;7.97;;;6.25;;
11490;SDS011;5802;52.832;4.758;2022-11-14T07:59:41;7.03;;;6.18;;
11490;SDS011;5802;52.832;4.758;2022-11-14T08:02:09;6.82;;;6.13;;
11490;SDS011;5802;52.832;4.758;2022-11-14T08:04:39;6.95;;;6.25;;
11490;SDS011;5802;52.832;4.758;2022-11-14T08:07:06;7.90;;;6.40;;
11490;SDS011;5802;52.832;4.758;2022-11-14T08:09:32;7.30;;;6.53;;
11490;SDS011;5802;52.832;4.758;2022-11-14T08:11:59;7.93;;;6.13;;
11490;SDS011;5802;52.832;4.758;2022-11-14T08:14:26;6.80;;;6.10;;
11490;SDS011;5802;52.832;4.758;2022-11-14T08:16:53;7.40;;;6.38;;
11490;SDS011;5802;52.832;4.758;2022-11-14T08:19:19;7.15;;;6.00;;
11490;SDS011;5802;52.832;4.758;2022-11-14T08:21:47;8.10;;;6.78;;
11490;SDS011;5802;52.832;4.758;2022-11-14T08:24:14;8.20;;;6.55;;
11490;SDS011;5802;52.832;4.758;2022-11-14T08:26:41;7.88;;;6.15;;
11490;SDS011;5802;52.832;4.758;2022-11-14T08:29:08;7.47;;;6.05;;
11490;SDS011;5802;52.832;4.758;2022-11-14T08:31:36;7.45;;;6.35;;
11490;SDS011;5802;52.832;4.758;2022-11-14T08:34:02;8.80;;;6.47;;
11490;SDS011;5802;52.832;4.758;2022-11-14T08:36:29;6.97;;;6.22;;
11490;SDS011;5802;52.832;4.758;2022-11-14T08:38:57;7.30;;;6.40;;
11490;SDS011;5802;52.832;4.758;2022-11-14T08:41:24;7.90;;;6.45;;
11490;SDS011;5802;52.832;4.758;2022-11-14T08:43:50;6.63;;;5.93;;
11490;SDS011;5802;52.832;4.758;2022-11-14T08:46:17;7.30;;;6.22;;
11490;SDS011;5802;52.832;4.758;2022-11-14T08:48:44;8.65;;;6.40;;
11490;SDS011;5802;52.832;4.758;2022-11-14T08:51:10;7.97;;;6.22;;
11490;SDS011;5802;52.832;4.758;2022-11-14T08:53:37;7.93;;;6.18;;
11490;SDS011;5802;52.832;4.758;2022-11-14T08:56:06;6.82;;;6.13;;
11490;SDS011;5802;52.832;4.758;2022-11-14T08:58:34;9.35;;;6.70;;
11490;SDS011;5802;52.832;4.758;2022-11-14T09:01:01;7.70;;;6.20;;
11490;SDS011;5802;52.832;4.758;2022-11-14T09:03:29;7.05;;;5.45;;
11490;SDS011;5802;52.832;4.758;2022-11-14T09:05:56;9.50;;;6.63;;
11490;SDS011;5802;52.832;4.758;2022-11-14T09:08:23;6.85;;;5.93;;
11490;SDS011;5802;52.832;4.758;2022-11-14T09:10:50;7.55;;;5.80;;
11490;SDS011;5802;52.832;4.758;2022-11-14T09:13:18;7.65;;;6.53;;
11490;SDS011;5802;52.832;4.758;2022-11-14T09:15:45;6.55;;;5.82;;
11490;SDS011;5802;52.832;4.758;2022-11-14T09:18:12;7.13;;;6.20;;
11490;SDS011;5802;52.832;4.758;2022-11-14T09:20:39;6.75;;;5.88;;
11490;SDS011;5802;52.832;4.758;2022-11-14T09:23:06;8.75;;;6.53;;
11490;SDS011;5802;52.832;4.758;2022-11-14T09:25:32;7.57;;;6.13;;
11490;SDS011;5802;52.832;4.758;2022-11-14T09:28:02;7.38;;;6.15;;
11490;SDS011;5802;52.832;4.758;2022-11-14T09:30:32;6.45;;;5.78;;
11490;SDS011;5802;52.832;4.758;2022-11-14T09:32:59;7.47;;;5.97;;
11490;SDS011;5802;52.832;4.758;2022-11-14T09:35:26;6.65;;;5.53;;
11490;SDS011;5802;52.832;4.758;2022-11-14T09:37:59;6.97;;;5.70;;
11490;SDS011;5802;52.832;4.758;2022-11-14T09:40:26;7.88;;;6.00;;
11490;SDS011;5802;52.832;4.758;2022-11-14T09:43:06;7.70;;;5.85;;
11490;SDS011;5802;52.832;4.758;2022-11-14T09:45:47;7.43;;;5.78;;
11490;SDS011;5802;52.832;4.758;2022-11-14T09:48:17;10.02;;;5.82;;
11490;SDS011;5802;52.832;4.758;2022-11-14T09:50:47;9.27;;;6.13;;
11490;SDS011;5802;52.832;4.758;2022-11-14T09:53:21;9.73;;;5.72;;
11490;SDS011;5802;52.832;4.758;2022-11-14T09:55:52;6.10;;;5.50;;
11490;SDS011;5802;52.832;4.758;2022-11-14T09:58:19;6.18;;;5.22;;
11490;SDS011;5802;52.832;4.758;2022-11-14T10:00:49;6.35;;;5.68;;
11490;SDS011;5802;52.832;4.758;2022-11-14T10:03:22;7.10;;;5.50;;
11490;SDS011;5802;52.832;4.758;2022-11-14T10:08:55;8.27;;;5.70;;
11490;SDS011;5802;52.832;4.758;2022-11-14T10:11:31;6.60;;;5.35;;
11490;SDS011;5802;52.832;4.758;2022-11-14T10:17:06;6.63;;;5.68;;
11490;SDS011;5802;52.832;4.758;2022-11-14T10:19:45;7.22;;;6.03;;
11490;SDS011;5802;52.832;4.758;2022-11-14T10:22:21;8.50;;;5.57;;
11490;SDS011;5802;52.832;4.758;2022-11-14T10:25:02;6.82;;;5.82;;
11490;SDS011;5802;52.832;4.758;2022-11-14T10:27:41;6.80;;;5.68;;
11490;SDS011;5802;52.832;4.758;2022-11-14T10:30:15;6.68;;;5.80;;
11490;SDS011;5802;52.832;4.758;2022-11-14T10:32:49;6.35;;;5.63;;
11490;SDS011;5802;52.832;4.758;2022-11-14T10:35:34;5.85;;;5.25;;
11490;SDS011;5802;52.832;4.758;2022-11-14T10:38:06;6.30;;;5.70;;
11490;SDS011;5802;52.832;4.758;2022-11-14T10:40:39;6.13;;;5.55;;
11490;SDS011;5802;52.832;4.758;2022-11-14T10:43:15;6.72;;;5.40;;
11490;SDS011;5802;52.832;4.758;2022-11-14T10:45:48;6.60;;;5.20;;
11490;SDS011;5802;52.832;4.758;2022-11-14T10:48:27;6.30;;;5.40;;
11490;SDS011;5802;52.832;4.758;2022-11-14T10:50:56;6.68;;;5.50;;
11490;SDS011;5802;52.832;4.758;2022-11-14T10:53:27;7.22;;;5.47;;
11490;SDS011;5802;52.832;4.758;2022-11-14T10:56:07;6.57;;;5.80;;
11490;SDS011;5802;52.832;4.758;2022-11-14T10:58:36;8.15;;;6.20;;
11490;SDS011;5802;52.832;4.758;2022-11-14T11:04:00;8.27;;;5.55;;
11490;SDS011;5802;52.832;4.758;2022-11-14T11:06:38;6.90;;;5.50;;
11490;SDS011;5802;52.832;4.758;2022-11-14T11:09:06;7.07;;;5.13;;
11490;SDS011;5802;52.832;4.758;2022-11-14T11:11:52;15.23;;;5.85;;
11490;SDS011;5802;52.832;4.758;2022-11-14T11:14:20;12.00;;;6.53;;
11490;SDS011;5802;52.832;4.758;2022-11-14T11:16:48;13.65;;;9.27;;
11490;SDS011;5802;52.832;4.758;2022-11-14T11:19:23;16.95;;;11.10;;
11490;SDS011;5802;52.832;4.758;2022-11-14T11:21:51;31.42;;;16.45;;
11490;SDS011;5802;52.832;4.758;2022-11-14T11:24:29;44.47;;;23.17;;
11490;SDS011;5802;52.832;4.758;2022-11-14T11:27:10;51.05;;;28.70;;
11490;SDS011;5802;52.832;4.758;2022-11-14T11:29:38;69.30;;;39.88;;
11490;SDS011;5802;52.832;4.758;2022-11-14T11:32:06;84.35;;;46.80;;
11490;SDS011;5802;52.832;4.758;2022-11-14T11:34:34;98.82;;;52.35;;
11490;SDS011;5802;52.832;4.758;2022-11-14T11:37:04;109.70;;;55.53;;
11490;SDS011;5802;52.832;4.758;2022-11-14T11:39:39;111.53;;;56.50;;
11490;SDS011;5802;52.832;4.758;2022-11-14T11:42:10;102.28;;;55.30;;
11490;SDS011;5802;52.832;4.758;2022-11-14T11:44:42;105.35;;;58.38;;
11490;SDS011;5802;52.832;4.758;2022-11-14T11:47:12;105.88;;;56.83;;
11490;SDS011;5802;52.832;4.758;2022-11-14T11:49:43;104.20;;;56.92;;
11490;SDS011;5802;52.832;4.758;2022-11-14T11:52:12;113.35;;;56.22;;
11490;SDS011;5802;52.832;4.758;2022-11-14T11:54:46;97.80;;;55.00;;
11490;SDS011;5802;52.832;4.758;2022-11-14T11:57:22;104.97;;;55.45;;
11490;SDS011;5802;52.832;4.758;2022-11-14T11:59:55;101.68;;;54.78;;
11490;SDS011;5802;52.832;4.758;2022-11-14T12:02:28;97.47;;;52.60;;
11490;SDS011;5802;52.832;4.758;2022-11-14T12:04:56;99.10;;;52.25;;
11490;SDS011;5802;52.832;4.758;2022-11-14T12:07:28;92.38;;;50.33;;
11490;SDS011;5802;52.832;4.758;2022-11-14T12:10:01;92.13;;;47.92;;
11490;SDS011;5802;52.832;4.758;2022-11-14T12:12:40;90.50;;;48.25;;
11490;SDS011;5802;52.832;4.758;2022-11-14T12:15:37;88.28;;;46.42;;
11490;SDS011;5802;52.832;4.758;2022-11-14T12:21:09;76.78;;;43.65;;
11490;SDS011;5802;52.832;4.758;2022-11-14T12:23:51;84.50;;;45.20;;
11490;SDS011;5802;52.832;4.758;2022-11-14T12:26:40;82.95;;;47.28;;
11490;SDS011;5802;52.832;4.758;2022-11-14T12:29:21;81.45;;;48.15;;
11490;SDS011;5802;52.832;4.758;2022-11-14T12:32:01;85.70;;;49.28;;
11490;SDS011;5802;52.832;4.758;2022-11-14T12:34:32;79.63;;;49.67;;
11490;SDS011;5802;52.832;4.758;2022-11-14T12:37:07;89.03;;;50.53;;
11490;SDS011;5802;52.832;4.758;2022-11-14T12:39:39;88.60;;;50.38;;
11490;SDS011;5802;52.832;4.758;2022-11-14T12:42:09;80.85;;;48.83;;
11490;SDS011;5802;52.832;4.758;2022-11-14T12:44:38;80.82;;;49.03;;
11490;SDS011;5802;52.832;4.758;2022-11-14T12:50:00;67.70;;;44.70;;
11490;SDS011;5802;52.832;4.758;2022-11-14T12:58:22;64.63;;;42.80;;
11490;SDS011;5802;52.832;4.758;2022-11-14T13:01:00;65.93;;;40.50;;
11490;SDS011;5802;52.832;4.758;2022-11-14T13:03:46;60.33;;;39.33;;
11490;SDS011;5802;52.832;4.758;2022-11-14T13:06:23;57.35;;;37.80;;
11490;SDS011;5802;52.832;4.758;2022-11-14T13:09:00;58.80;;;37.30;;
11490;SDS011;5802;52.832;4.758;2022-11-14T13:11:42;52.85;;;35.95;;
11490;SDS011;5802;52.832;4.758;2022-11-14T13:14:27;54.38;;;34.58;;
11490;SDS011;5802;52.832;4.758;2022-11-14T13:17:22;48.65;;;32.72;;
11490;SDS011;5802;52.832;4.758;2022-11-14T13:20:24;48.08;;;31.02;;
11490;SDS011;5802;52.832;4.758;2022-11-14T13:35:28;38.13;;;26.08;;
11490;SDS011;5802;52.832;4.758;2022-11-14T13:38:10;38.85;;;25.92;;
11490;SDS011;5802;52.832;4.758;2022-11-14T13:40:59;40.72;;;25.08;;
11490;SDS011;5802;52.832;4.758;2022-11-14T13:43:39;40.13;;;24.42;;
11490;SDS011;5802;52.832;4.758;2022-11-14T13:46:20;36.03;;;22.70;;
11490;SDS011;5802;52.832;4.758;2022-11-14T13:49:03;36.15;;;21.92;;
11490;SDS011;5802;52.832;4.758;2022-11-14T13:51:44;33.10;;;21.85;;
11490;SDS011;5802;52.832;4.758;2022-11-14T13:54:12;35.33;;;21.67;;
11490;SDS011;5802;52.832;4.758;2022-11-14T13:56:41;33.50;;;19.77;;
11490;SDS011;5802;52.832;4.758;2022-11-14T13:59:27;30.58;;;20.20;;
11490;SDS011;5802;52.832;4.758;2022-11-14T14:05:12;29.15;;;18.85;;
11490;SDS011;5802;52.832;4.758;2022-11-14T14:07:49;30.58;;;18.70;;
11490;SDS011;5802;52.832;4.758;2022-11-14T14:10:24;27.13;;;17.98;;
11490;SDS011;5802;52.832;4.758;2022-11-14T14:13:00;24.83;;;16.65;;
11490;SDS011;5802;52.832;4.758;2022-11-14T14:15:38;23.45;;;17.13;;
11490;SDS011;5802;52.832;4.758;2022-11-14T14:18:19;25.80;;;16.23;;
11490;SDS011;5802;52.832;4.758;2022-11-14T14:20:53;27.52;;;16.88;;
11490;SDS011;5802;52.832;4.758;2022-11-14T14:23:29;23.15;;;16.17;;
11490;SDS011;5802;52.832;4.758;2022-11-14T14:26:04;24.73;;;15.48;;
11490;SDS011;5802;52.832;4.758;2022-11-14T14:28:43;22.02;;;14.90;;
11490;SDS011;5802;52.832;4.758;2022-11-14T14:31:20;23.33;;;15.13;;
11490;SDS011;5802;52.832;4.758;2022-11-14T14:33:49;20.65;;;14.20;;
11490;SDS011;5802;52.832;4.758;2022-11-14T14:36:17;21.17;;;14.20;;
11490;SDS011;5802;52.832;4.758;2022-11-14T14:38:45;17.85;;;12.88;;
11490;SDS011;5802;52.832;4.758;2022-11-14T14:41:13;20.25;;;13.38;;
11490;SDS011;5802;52.832;4.758;2022-11-14T14:43:48;19.05;;;12.23;;
11490;SDS011;5802;52.832;4.758;2022-11-14T14:46:24;17.25;;;12.38;;
11490;SDS011;5802;52.832;4.758;2022-11-14T14:48:54;21.10;;;12.40;;
11490;SDS011;5802;52.832;4.758;2022-11-14T14:51:28;19.33;;;12.13;;
11490;SDS011;5802;52.832;4.758;2022-11-14T14:53:57;18.38;;;11.32;;
11490;SDS011;5802;52.832;4.758;2022-11-14T14:56:23;18.08;;;11.15;;
11490;SDS011;5802;52.832;4.758;2022-11-14T14:58:51;14.65;;;10.77;;
11490;SDS011;5802;52.832;4.758;2022-11-14T15:01:18;20.45;;;10.93;;
11490;SDS011;5802;52.832;4.758;2022-11-14T15:03:47;13.77;;;10.13;;
11490;SDS011;5802;52.832;4.758;2022-11-14T15:06:21;16.75;;;10.38;;
11490;SDS011;5802;52.832;4.758;2022-11-14T15:08:54;15.05;;;10.27;;
11490;SDS011;5802;52.832;4.758;2022-11-14T15:11:22;15.73;;;9.90;;
11490;SDS011;5802;52.832;4.758;2022-11-14T15:13:50;16.45;;;9.93;;
11490;SDS011;5802;52.832;4.758;2022-11-14T15:16:19;13.15;;;9.10;;
11490;SDS011;5802;52.832;4.758;2022-11-14T15:18:47;13.57;;;9.15;;
11490;SDS011;5802;52.832;4.758;2022-11-14T15:21:15;14.98;;;9.50;;
11490;SDS011;5802;52.832;4.758;2022-11-14T15:23:58;17.42;;;9.55;;
11490;SDS011;5802;52.832;4.758;2022-11-14T15:26:27;14.05;;;8.60;;
11490;SDS011;5802;52.832;4.758;2022-11-14T15:29:05;13.75;;;8.88;;
11490;SDS011;5802;52.832;4.758;2022-11-14T15:31:37;15.02;;;8.73;;
11490;SDS011;5802;52.832;4.758;2022-11-14T15:34:04;10.98;;;8.75;;
11490;SDS011;5802;52.832;4.758;2022-11-14T15:39:33;12.98;;;8.35;;
11490;SDS011;5802;52.832;4.758;2022-11-14T15:42:10;12.10;;;8.45;;
11490;SDS011;5802;52.832;4.758;2022-11-14T15:44:37;12.30;;;8.43;;
11490;SDS011;5802;52.832;4.758;2022-11-14T15:47:08;10.43;;;7.75;;
11490;SDS011;5802;52.832;4.758;2022-11-14T15:49:36;9.55;;;7.47;;